Time;durP1;ratioP1;P1;durP2;ratioP2;P2;SDS_P1;SDS_P2;PMS_P1;PMS_P2;Temp;Humidity;BMP_temperature;BMP_pressure;BME280_temperature;BME280_humidity;BME280_pressure;Samples;Min_cycle;Max_cycle;Signal;HPM_P1;HPM_P2
2022/03/25 00:02:21;;;;;;;60.55;40.85;;;;;;;8.99;80.97;102840.63;5276608;28;20032;-71
2022/03/25 00:04:52;;;;;;;63.17;39.90;;;;;;;8.93;79.76;102845.28;5276131;28;20427;-71
2022/03/25 00:07:23;;;;;;;61.42;42.17;;;;;;;8.96;81.58;102845.97;5275234;28;20363;-71
2022/03/25 00:09:55;;;;;;;61.95;41.60;;;;;;;8.92;81.62;102840.97;5275818;28;20099;-71
2022/03/25 00:12:26;;;;;;;68.20;43.78;;;;;;;8.89;81.56;102839.34;5276881;28;20021;-71
2022/03/25 00:14:58;;;;;;;56.72;40.08;;;;;;;8.83;81.36;102852.72;5276233;28;20108;-71
2022/03/25 00:17:29;;;;;;;56.13;38.00;;;;;;;8.89;80.49;102841.94;5275187;28;20039;-71
2022/03/25 00:20:00;;;;;;;59.90;40.00;;;;;;;8.80;80.72;102850.22;5276591;28;20032;-71
2022/03/25 00:22:32;;;;;;;57.38;38.30;;;;;;;8.84;81.43;102851.78;5276569;28;20098;-71
2022/03/25 00:25:05;;;;;;;62.50;40.80;;;;;;;8.74;81.81;102853.09;5273972;28;20041;-71
2022/03/25 00:27:36;;;;;;;56.45;39.63;;;;;;;8.76;81.57;102856.50;5275230;28;20023;-70
2022/03/25 00:30:09;;;;;;;59.17;40.70;;;;;;;8.67;82.35;102854.28;5274818;28;20025;-71
2022/03/25 00:32:40;;;;;;;56.63;39.55;;;;;;;8.70;81.78;102856.78;5276047;28;20040;-72
2022/03/25 00:35:12;;;;;;;59.03;40.28;;;;;;;8.59;83.22;102859.00;5276435;28;20033;-71
2022/03/25 00:37:43;;;;;;;61.25;42.03;;;;;;;8.58;80.95;102854.72;5276571;28;20008;-71
2022/03/25 00:40:15;;;;;;;62.42;40.63;;;;;;;8.49;82.80;102854.22;5277001;28;20021;-72
2022/03/25 00:42:47;;;;;;;60.55;42.40;;;;;;;8.41;83.45;102848.47;5276085;28;20035;-71
2022/03/25 00:45:18;;;;;;;59.92;39.13;;;;;;;8.33;81.78;102839.22;5277140;28;20029;-71
2022/03/25 00:47:50;;;;;;;61.03;41.13;;;;;;;8.27;83.69;102849.03;5277178;28;20138;-71
2022/03/25 00:50:21;;;;;;;64.18;41.95;;;;;;;8.29;84.04;102841.13;5275247;28;20115;-71
2022/03/25 00:52:53;;;;;;;63.30;41.40;;;;;;;8.28;84.06;102848.09;5276606;28;20035;-71
2022/03/25 00:55:24;;;;;;;59.65;40.67;;;;;;;8.33;84.09;102844.44;5276526;28;20068;-71
2022/03/25 00:57:55;;;;;;;55.25;38.97;;;;;;;8.25;84.27;102848.22;5276088;28;20020;-72
2022/03/25 01:00:27;;;;;;;58.47;41.22;;;;;;;8.20;84.72;102837.16;5276845;28;20028;-71
2022/03/25 01:02:58;;;;;;;60.55;40.00;;;;;;;8.15;83.90;102841.72;5275648;28;20027;-71
2022/03/25 01:05:29;;;;;;;58.92;39.67;;;;;;;8.16;83.80;102847.78;5276528;28;20025;-71
2022/03/25 01:08:01;;;;;;;54.22;39.47;;;;;;;8.10;83.87;102848.03;5275924;28;20064;-71
2022/03/25 01:10:34;;;;;;;61.88;40.50;;;;;;;8.19;84.54;102848.50;5276186;28;20067;-71
2022/03/25 01:13:06;;;;;;;56.45;39.53;;;;;;;8.11;83.89;102847.16;5275679;28;20049;-71
2022/03/25 01:15:38;;;;;;;55.77;39.30;;;;;;;8.05;84.55;102846.47;5274806;28;20099;-72
2022/03/25 01:18:10;;;;;;;58.28;39.13;;;;;;;7.96;83.28;102849.47;5276471;28;20026;-71
2022/03/25 01:20:42;;;;;;;55.75;39.28;;;;;;;8.04;83.00;102847.41;5276347;28;20060;-71
2022/03/25 01:23:13;;;;;;;54.50;37.35;;;;;;;8.12;83.16;102848.84;5275121;28;20055;-71
2022/03/25 01:25:44;;;;;;;56.85;38.05;;;;;;;8.00;83.92;102851.06;5273097;28;20367;-72
2022/03/25 01:28:16;;;;;;;58.13;39.33;;;;;;;7.94;84.89;102845.22;5275377;28;20470;-71
2022/03/25 01:30:47;;;;;;;57.95;37.60;;;;;;;7.93;84.90;102849.59;5276427;28;20481;-71
2022/03/25 01:33:18;;;;;;;58.33;39.75;;;;;;;7.84;85.41;102844.78;5274682;28;20039;-71
2022/03/25 01:35:50;;;;;;;61.20;40.65;;;;;;;7.81;85.56;102844.91;5276023;28;20028;-71
2022/03/25 01:38:21;;;;;;;58.53;38.67;;;;;;;7.79;84.34;102842.34;5275766;28;20056;-71
2022/03/25 01:40:53;;;;;;;57.90;38.38;;;;;;;7.72;85.72;102837.44;5274498;28;20024;-71
2022/03/25 01:43:25;;;;;;;51.27;37.20;;;;;;;7.76;85.45;102837.25;5275313;28;20121;-71
2022/03/25 01:45:57;;;;;;;57.17;36.90;;;;;;;7.70;85.39;102842.72;5275691;28;20115;-71
2022/03/25 01:48:28;;;;;;;54.17;37.10;;;;;;;7.70;84.58;102836.66;5275596;28;20028;-71
2022/03/25 01:51:01;;;;;;;56.95;36.33;;;;;;;7.72;84.57;102837.44;5274735;28;20217;-71
2022/03/25 01:53:32;;;;;;;55.50;37.45;;;;;;;7.57;84.57;102834.53;5275560;28;20028;-71
2022/03/25 01:56:05;;;;;;;63.05;39.58;;;;;;;7.53;85.58;102848.59;5276138;28;20028;-71
2022/03/25 01:58:39;;;;;;;56.78;37.03;;;;;;;7.50;84.89;102846.16;5274522;28;20020;-71
2022/03/25 02:01:10;;;;;;;58.17;39.03;;;;;;;7.40;85.89;102850.00;5274533;28;20055;-71
2022/03/25 02:03:44;;;;;;;56.97;36.80;;;;;;;7.42;86.24;102845.56;5275279;28;20082;-71
2022/03/25 02:06:15;;;;;;;54.85;36.90;;;;;;;7.32;86.51;102845.09;5274606;28;20020;-71
2022/03/25 02:08:47;;;;;;;53.80;36.95;;;;;;;7.30;87.15;102844.28;5275395;28;20035;-71
2022/03/25 02:11:18;;;;;;;60.45;37.10;;;;;;;7.25;86.20;102848.00;5274921;28;20423;-72
2022/03/25 02:13:50;;;;;;;56.60;35.75;;;;;;;7.26;84.17;102841.88;5273439;28;20068;-71
2022/03/25 02:16:33;;;;;;;51.13;34.15;;;;;;;7.40;85.23;102846.56;5274917;28;20036;-71
2022/03/25 02:19:05;;;;;;;53.90;36.35;;;;;;;7.13;85.18;102844.13;5274840;28;20381;-71
2022/03/25 02:21:38;;;;;;;59.00;36.42;;;;;;;7.15;85.85;102844.91;5275225;28;20035;-71
2022/03/25 02:24:10;;;;;;;53.10;33.97;;;;;;;7.11;85.00;102835.50;5272051;28;20024;-71
2022/03/25 02:26:42;;;;;;;50.65;34.13;;;;;;;7.10;85.06;102841.63;5274861;28;20028;-71
2022/03/25 02:29:17;;;;;;;53.63;33.17;;;;;;;7.12;84.47;102841.56;5274990;28;20028;-70
2022/03/25 02:31:48;;;;;;;49.42;33.67;;;;;;;7.07;84.35;102837.38;5274087;28;20044;-71
2022/03/25 02:34:19;;;;;;;51.38;33.38;;;;;;;7.09;84.11;102839.09;5274323;28;20036;-71
2022/03/25 02:36:51;;;;;;;53.22;31.92;;;;;;;7.03;83.31;102829.72;5275187;28;20043;-71
2022/03/25 02:39:23;;;;;;;49.58;32.15;;;;;;;7.04;83.34;102834.03;5267771;28;20028;-70
2022/03/25 02:41:54;;;;;;;46.58;33.22;;;;;;;7.01;83.18;102839.38;5274129;28;20028;-71
2022/03/25 02:44:27;;;;;;;49.67;32.38;;;;;;;7.01;81.58;102836.78;5273109;28;20466;-71
2022/03/25 02:46:59;;;;;;;46.30;30.33;;;;;;;6.92;82.22;102831.88;5274842;28;20051;-71
2022/03/25 02:49:30;;;;;;;49.58;30.52;;;;;;;6.90;82.08;102828.50;5273384;28;20024;-71
2022/03/25 02:52:01;;;;;;;48.08;31.95;;;;;;;6.88;81.33;102836.38;5275164;28;20742;-70
2022/03/25 02:54:32;;;;;;;43.65;30.65;;;;;;;6.85;81.99;102830.41;5278546;28;20017;-71
2022/03/25 02:57:04;;;;;;;44.88;31.55;;;;;;;6.81;81.94;102838.34;5278216;28;20089;-71
2022/03/25 02:59:35;;;;;;;53.97;32.10;;;;;;;6.76;81.65;102836.81;5276332;28;20040;-71
2022/03/25 03:02:07;;;;;;;46.20;31.55;;;;;;;6.92;80.41;102837.94;5277294;28;20025;-71
2022/03/25 03:04:38;;;;;;;50.10;31.08;;;;;;;6.75;80.76;102841.19;5276077;28;20055;-71
2022/03/25 03:07:10;;;;;;;46.53;31.35;;;;;;;6.71;80.38;102830.94;5274062;28;20101;-71
2022/03/25 03:09:41;;;;;;;44.30;30.35;;;;;;;6.74;81.11;102834.28;5277839;28;20032;-71
2022/03/25 03:12:13;;;;;;;43.80;29.65;;;;;;;6.69;80.46;102844.00;5278849;28;20020;-71
2022/03/25 03:14:44;;;;;;;43.85;30.52;;;;;;;6.70;81.10;102842.25;5278477;28;20438;-70
2022/03/25 03:17:15;;;;;;;47.75;30.50;;;;;;;6.59;80.36;102845.22;5278663;28;20321;-70
2022/03/25 03:19:47;;;;;;;43.92;28.52;;;;;;;6.44;81.12;102838.84;5278012;28;20107;-71
2022/03/25 03:22:18;;;;;;;44.08;30.05;;;;;;;6.47;80.63;102836.13;5278953;28;20082;-70
2022/03/25 03:24:49;;;;;;;43.83;28.90;;;;;;;6.43;80.71;102844.09;5277340;28;20364;-70
2022/03/25 03:27:20;;;;;;;46.00;30.83;;;;;;;6.32;81.45;102842.72;5278590;28;20118;-70
2022/03/25 03:29:52;;;;;;;44.47;30.25;;;;;;;6.27;81.63;102825.56;5278200;28;20032;-70
2022/03/25 03:32:25;;;;;;;54.92;31.42;;;;;;;6.33;81.89;102840.97;5277324;28;20838;-70
2022/03/25 03:34:57;;;;;;;48.15;30.83;;;;;;;6.26;81.93;102840.34;5277962;28;21019;-72
2022/03/25 03:37:28;;;;;;;45.88;31.25;;;;;;;6.23;80.92;102835.22;5278260;28;20052;-70
2022/03/25 03:40:00;;;;;;;48.17;30.67;;;;;;;6.25;81.02;102845.56;5278356;28;20024;-71
2022/03/25 03:42:31;;;;;;;45.35;31.05;;;;;;;6.19;81.22;102844.06;5276925;28;20089;-70
2022/03/25 03:45:04;;;;;;;44.33;29.77;;;;;;;6.23;81.92;102842.19;5278152;28;20025;-70
2022/03/25 03:47:36;;;;;;;45.97;30.17;;;;;;;6.07;81.86;102834.06;5278076;28;20318;-70
2022/03/25 03:50:10;;;;;;;45.47;31.08;;;;;;;6.04;82.37;102831.56;5276592;28;20027;-70
2022/03/25 03:52:42;;;;;;;47.63;29.65;;;;;;;6.08;81.28;102839.22;5277457;28;20253;-70
2022/03/25 03:55:14;;;;;;;45.63;30.75;;;;;;;5.97;82.27;102849.13;5277677;28;20028;-70
2022/03/25 03:57:45;;;;;;;40.80;28.65;;;;;;;6.07;81.05;102841.88;5276449;28;20063;-70
2022/03/25 04:00:17;;;;;;;44.35;29.55;;;;;;;5.90;80.05;102841.53;5276406;28;20036;-70
2022/03/25 04:02:48;;;;;;;45.35;29.63;;;;;;;5.84;81.96;102848.66;5277336;28;20066;-70
2022/03/25 04:05:20;;;;;;;44.70;30.15;;;;;;;5.80;81.43;102839.25;5277732;28;20020;-69
2022/03/25 04:07:51;;;;;;;44.22;29.63;;;;;;;5.79;82.94;102842.75;5275250;28;20062;-70
2022/03/25 04:10:22;;;;;;;46.42;29.80;;;;;;;5.72;82.22;102833.47;5277320;28;20392;-70
2022/03/25 04:12:53;;;;;;;43.28;29.73;;;;;;;5.70;82.99;102843.03;5275876;28;20031;-70
2022/03/25 04:15:25;;;;;;;45.42;30.80;;;;;;;5.66;82.89;102836.25;5276523;28;20028;-70
2022/03/25 04:17:58;;;;;;;47.03;30.30;;;;;;;5.59;82.82;102838.19;5276039;28;20024;-70
2022/03/25 04:20:29;;;;;;;43.00;28.85;;;;;;;5.59;81.97;102843.38;5277319;28;20401;-70
2022/03/25 04:23:00;;;;;;;44.15;29.92;;;;;;;5.50;83.65;102845.44;5277060;28;20107;-70
2022/03/25 04:25:31;;;;;;;45.95;30.58;;;;;;;5.47;82.41;102843.78;5276091;28;20481;-70
2022/03/25 04:28:03;;;;;;;45.38;28.90;;;;;;;5.44;83.04;102854.28;5275599;28;20054;-70
2022/03/25 04:30:37;;;;;;;40.70;28.98;;;;;;;5.42;83.08;102852.59;5277081;28;20103;-70
2022/03/25 04:33:08;;;;;;;47.72;32.03;;;;;;;5.45;81.85;102861.16;5277534;28;20480;-70
2022/03/25 04:35:39;;;;;;;43.38;29.40;;;;;;;5.50;81.77;102854.09;5277069;28;20032;-70
2022/03/25 04:38:11;;;;;;;45.20;30.70;;;;;;;5.49;81.91;102859.31;5276187;28;20378;-70
2022/03/25 04:40:42;;;;;;;47.42;31.23;;;;;;;5.51;82.20;102858.38;5276892;28;20020;-70
2022/03/25 04:43:14;;;;;;;48.33;31.25;;;;;;;5.39;83.07;102863.13;5276907;28;20052;-70
2022/03/25 04:45:45;;;;;;;47.30;30.23;;;;;;;5.54;81.73;102860.91;5275865;28;20063;-70
2022/03/25 04:48:17;;;;;;;47.10;31.58;;;;;;;5.48;82.25;102857.63;5276633;28;20085;-70
2022/03/25 04:50:48;;;;;;;45.35;31.77;;;;;;;5.53;81.21;102859.19;5277135;28;20115;-70
2022/03/25 04:53:19;;;;;;;48.05;32.88;;;;;;;5.43;81.06;102855.19;5275809;28;20074;-70
2022/03/25 04:55:50;;;;;;;46.70;30.33;;;;;;;5.42;81.40;102860.41;5276270;28;20078;-70
2022/03/25 04:58:22;;;;;;;48.95;31.35;;;;;;;5.39;81.15;102860.53;5276299;28;20417;-70
2022/03/25 05:00:53;;;;;;;48.95;30.67;;;;;;;5.40;81.85;102857.88;5273620;28;20025;-70
2022/03/25 05:03:24;;;;;;;48.75;30.58;;;;;;;5.41;82.08;102862.16;5276167;28;20035;-70
2022/03/25 05:05:56;;;;;;;46.60;30.17;;;;;;;5.25;82.54;102864.38;5276143;28;20466;-70
2022/03/25 05:08:27;;;;;;;43.38;31.15;;;;;;;5.24;81.78;102862.69;5276684;28;20025;-70
2022/03/25 05:10:58;;;;;;;47.58;31.25;;;;;;;5.27;80.70;102861.75;5275477;28;20048;-70
2022/03/25 05:13:30;;;;;;;45.22;30.67;;;;;;;5.14;82.27;102861.25;5275625;28;20083;-70
2022/03/25 05:16:01;;;;;;;46.40;30.45;;;;;;;5.11;82.18;102866.53;5276169;28;20020;-70
2022/03/25 05:18:33;;;;;;;47.55;30.77;;;;;;;5.20;83.10;102865.44;5275063;28;20020;-70
2022/03/25 05:21:05;;;;;;;55.08;31.90;;;;;;;5.02;84.11;102865.06;5275814;28;20031;-70
2022/03/25 05:23:36;;;;;;;45.13;31.00;;;;;;;5.13;82.91;102865.59;5275270;28;20016;-70
2022/03/25 05:26:07;;;;;;;47.95;30.92;;;;;;;4.98;84.07;102867.78;5276055;28;20025;-70
2022/03/25 05:28:39;;;;;;;52.35;31.67;;;;;;;4.94;84.19;102873.97;5274771;28;20397;-69
2022/03/25 05:31:10;;;;;;;49.90;31.10;;;;;;;4.93;82.17;102869.69;5275857;28;20465;-70
2022/03/25 05:33:41;;;;;;;46.83;30.50;;;;;;;4.84;83.44;102865.56;5275367;28;20070;-70
2022/03/25 05:36:13;;;;;;;46.53;31.15;;;;;;;4.81;83.50;102863.06;5274293;28;20025;-70
2022/03/25 05:38:44;;;;;;;51.35;31.73;;;;;;;4.79;84.20;102870.06;5275532;28;20062;-70
2022/03/25 05:41:15;;;;;;;48.92;32.25;;;;;;;4.81;84.21;102868.25;5275818;28;20025;-70
2022/03/25 05:43:47;;;;;;;48.83;31.67;;;;;;;4.74;84.84;102871.94;5273904;28;20039;-70
2022/03/25 05:46:18;;;;;;;47.55;30.80;;;;;;;4.72;84.88;102879.75;5275938;28;20545;-70
2022/03/25 05:48:50;;;;;;;47.33;30.63;;;;;;;4.69;85.01;102881.59;5275225;28;20024;-70
2022/03/25 05:51:21;;;;;;;49.30;31.75;;;;;;;4.69;84.32;102884.19;5274319;28;20060;-70
2022/03/25 05:53:52;;;;;;;47.20;32.20;;;;;;;4.71;85.11;102888.44;5275175;28;20024;-70
2022/03/25 05:56:24;;;;;;;47.60;30.20;;;;;;;4.72;84.85;102886.69;5275478;28;20067;-70
2022/03/25 05:58:55;;;;;;;46.85;31.17;;;;;;;4.66;84.60;102885.16;5274741;28;20040;-70
2022/03/25 06:01:26;;;;;;;46.50;32.17;;;;;;;4.69;84.54;102886.78;5272343;28;20398;-70
2022/03/25 06:03:57;;;;;;;53.05;32.35;;;;;;;4.67;85.75;102888.59;5272060;28;20095;-70
2022/03/25 06:06:29;;;;;;;48.13;31.05;;;;;;;4.69;85.53;102887.63;5273416;28;20044;-70
2022/03/25 06:09:00;;;;;;;48.25;31.70;;;;;;;4.70;86.10;102886.75;5271596;28;20025;-70
2022/03/25 06:11:31;;;;;;;48.70;32.63;;;;;;;4.77;85.73;102887.41;5272515;28;20622;-71
2022/03/25 06:14:02;;;;;;;48.97;32.22;;;;;;;4.76;85.71;102893.50;5272172;28;20046;-70
2022/03/25 06:16:34;;;;;;;50.25;33.28;;;;;;;4.78;86.11;102895.19;5273851;28;20055;-70
2022/03/25 06:19:06;;;;;;;55.50;32.75;;;;;;;4.94;86.30;102898.19;5269548;28;20103;-70
2022/03/25 06:21:37;;;;;;;53.15;33.53;;;;;;;4.92;85.85;102901.72;5273142;28;20393;-70
2022/03/25 06:24:08;;;;;;;51.75;32.42;;;;;;;4.87;86.03;102887.13;5272501;28;20024;-70
2022/03/25 06:26:40;;;;;;;49.13;32.90;;;;;;;4.98;86.92;102899.81;5271791;28;20099;-70
2022/03/25 06:29:11;;;;;;;48.80;31.77;;;;;;;5.00;86.30;102891.97;5271180;28;20671;-70
2022/03/25 06:31:42;;;;;;;52.17;34.08;;;;;;;5.13;86.44;102907.16;5273700;28;20032;-70
2022/03/25 06:34:20;;;;;;;57.15;34.53;;;;;;;5.13;86.97;102901.97;5274121;28;20519;-70
2022/03/25 06:36:51;;;;;;;47.78;32.97;;;;;;;5.19;87.27;102913.94;5274912;28;20056;-70
2022/03/25 06:39:22;;;;;;;51.65;34.60;;;;;;;5.20;87.05;102920.00;5275331;28;20662;-73
2022/03/25 06:41:54;;;;;;;54.50;35.83;;;;;;;5.25;87.63;102921.53;5275230;28;20051;-70
2022/03/25 06:44:25;;;;;;;58.60;36.67;;;;;;;5.27;87.52;102914.56;5273780;28;20029;-71
2022/03/25 06:46:56;;;;;;;58.00;37.40;;;;;;;5.32;87.72;102917.88;5274635;28;20020;-71
2022/03/25 06:49:28;;;;;;;56.33;36.78;;;;;;;5.40;88.10;102916.81;5275209;28;20020;-71
2022/03/25 06:51:59;;;;;;;57.72;37.50;;;;;;;5.43;87.06;102907.16;5275581;28;20063;-71
2022/03/25 06:54:31;;;;;;;59.17;37.15;;;;;;;5.54;88.62;102912.88;5273609;28;20040;-71
2022/03/25 06:57:02;;;;;;;57.28;37.65;;;;;;;5.62;87.79;102907.44;5274807;28;20107;-71
2022/03/25 06:59:34;;;;;;;59.45;39.75;;;;;;;5.76;87.94;102913.09;5274669;28;20017;-71
2022/03/25 07:02:07;;;;;;;58.00;39.72;;;;;;;5.85;87.53;102919.75;5274077;28;20024;-71
2022/03/25 07:04:39;;;;;;;61.17;40.25;;;;;;;5.97;87.64;102914.16;5274634;28;20456;-71
2022/03/25 07:07:11;;;;;;;64.25;42.50;;;;;;;6.03;87.15;102921.78;5274528;28;20025;-71
2022/03/25 07:09:42;;;;;;;64.32;42.13;;;;;;;6.19;86.78;102924.72;5273579;28;20028;-71
2022/03/25 07:12:16;;;;;;;59.50;41.83;;;;;;;6.33;87.45;102926.88;5274730;28;20027;-71
2022/03/25 07:14:48;;;;;;;65.20;43.97;;;;;;;6.41;86.52;102924.03;5274067;28;20056;-71
2022/03/25 07:17:19;;;;;;;62.70;44.58;;;;;;;6.59;85.82;102928.56;5274666;28;20326;-71
2022/03/25 07:19:50;;;;;;;64.65;43.67;;;;;;;6.69;85.67;102918.69;5273460;28;20033;-72
2022/03/25 07:22:21;;;;;;;67.47;44.28;;;;;;;6.84;84.25;102923.38;5274531;28;20040;-71
2022/03/25 07:24:53;;;;;;;60.92;43.90;;;;;;;7.07;84.38;102932.97;5273744;28;20060;-71
2022/03/25 07:27:24;;;;;;;63.53;46.03;;;;;;;7.17;83.43;102942.16;5272805;28;20491;-71
2022/03/25 07:29:55;;;;;;;66.07;45.33;;;;;;;7.29;82.36;102946.06;5272457;28;20493;-71
2022/03/25 07:32:27;;;;;;;68.95;45.58;;;;;;;7.45;82.33;102944.56;5271821;28;20505;-72
2022/03/25 07:34:58;;;;;;;63.05;45.05;;;;;;;7.50;81.92;102942.66;5272810;28;20020;-71
2022/03/25 07:37:29;;;;;;;66.07;46.58;;;;;;;7.59;80.63;102943.19;5274434;28;20110;-71
2022/03/25 07:40:01;;;;;;;64.13;45.75;;;;;;;7.70;81.52;102952.31;5274146;28;20020;-72
2022/03/25 07:42:32;;;;;;;61.90;45.35;;;;;;;7.79;80.20;102951.94;5274773;28;20417;-72
2022/03/25 07:45:05;;;;;;;64.20;44.22;;;;;;;7.93;80.51;102950.56;5276256;28;20016;-71
2022/03/25 07:47:44;;;;;;;63.50;44.10;;;;;;;8.09;79.86;102953.38;5269075;28;21054;-71
2022/03/25 07:50:21;;;;;;;62.13;43.95;;;;;;;8.17;79.11;102962.59;5272972;28;20027;-71
2022/03/25 07:52:53;;;;;;;65.70;45.60;;;;;;;8.25;79.03;102967.50;5273741;28;20275;-71
2022/03/25 07:55:25;;;;;;;62.13;46.70;;;;;;;8.31;77.29;102959.44;5274251;28;20039;-72
2022/03/25 07:57:57;;;;;;;64.32;44.45;;;;;;;8.44;76.63;102965.00;5276421;28;20020;-71
2022/03/25 08:00:28;;;;;;;64.13;43.97;;;;;;;8.55;76.58;102973.25;5276468;28;20081;-71
2022/03/25 08:02:59;;;;;;;65.40;45.78;;;;;;;8.64;75.83;102965.03;5275919;28;20023;-71
2022/03/25 08:05:31;;;;;;;66.38;45.67;;;;;;;8.78;75.34;102975.72;5254003;28;20040;-71
2022/03/25 08:08:03;;;;;;;64.10;47.08;;;;;;;8.89;76.01;102982.25;5273035;28;20476;-71
2022/03/25 08:10:34;;;;;;;70.47;48.00;;;;;;;9.02;74.43;102975.59;5276639;28;20146;-72
2022/03/25 08:13:07;;;;;;;62.97;45.72;;;;;;;9.13;72.82;102973.34;5276334;28;20170;-71
2022/03/25 08:15:38;;;;;;;63.25;46.60;;;;;;;9.26;72.96;102976.25;5272565;28;20024;-71
2022/03/25 08:18:19;;;;;;;66.95;45.83;;;;;;;9.38;71.13;102980.09;5273445;28;20306;-71
2022/03/25 08:20:51;;;;;;;65.22;46.20;;;;;;;9.52;70.79;102976.84;5274651;28;20024;-71
2022/03/25 08:29:17;;;;;;;55.75;40.90;;;;;;;9.90;65.71;102991.59;5277317;28;20052;-73
2022/03/25 08:31:48;;;;;;;58.35;40.63;;;;;;;10.00;64.23;102994.63;5276185;28;20021;-71
2022/03/25 08:34:21;;;;;;;60.03;41.92;;;;;;;10.05;64.41;102991.78;5276055;28;20338;-71
2022/03/25 08:36:52;;;;;;;60.58;41.72;;;;;;;10.20;63.94;102994.50;5273663;28;20028;-71
2022/03/25 08:39:23;;;;;;;64.20;42.78;;;;;;;10.46;63.86;102989.78;5273017;28;20413;-72
2022/03/25 08:41:54;;;;;;;67.85;47.35;;;;;;;10.55;64.38;103001.56;5272712;28;20453;-72
2022/03/25 08:44:26;;;;;;;67.97;47.45;;;;;;;10.70;63.96;103008.66;5274562;28;20033;-71
2022/03/25 08:46:57;;;;;;;63.42;43.05;;;;;;;10.84;60.53;103002.72;5274065;28;20036;-72
2022/03/25 08:49:30;;;;;;;60.00;40.78;;;;;;;11.03;59.35;103002.63;5274043;28;20028;-71
2022/03/25 08:52:01;;;;;;;58.88;41.42;;;;;;;11.12;58.33;103002.97;5272705;28;20363;-71
2022/03/25 08:54:33;;;;;;;63.67;41.75;;;;;;;11.27;58.21;103001.31;5274253;28;20039;-72
2022/03/25 08:57:08;;;;;;;52.35;37.55;;;;;;;11.49;58.06;103006.25;5273824;28;20052;-71
2022/03/25 08:59:39;;;;;;;58.58;40.42;;;;;;;11.58;55.47;103005.75;5274695;28;20104;-70
2022/03/25 09:02:11;;;;;;;59.03;39.00;;;;;;;11.60;54.99;103003.91;5274045;28;20025;-71
2022/03/25 09:04:44;;;;;;;61.00;41.40;;;;;;;11.73;55.31;103011.09;5274400;28;20036;-70
2022/03/25 09:07:16;;;;;;;55.25;39.25;;;;;;;11.87;55.22;103006.81;5274087;28;20445;-71
2022/03/25 09:09:47;;;;;;;59.85;39.58;;;;;;;11.98;54.30;103016.72;5273855;28;20024;-71
2022/03/25 09:12:19;;;;;;;57.95;39.50;;;;;;;12.13;54.58;103012.38;5273701;28;20032;-71
2022/03/25 09:14:50;;;;;;;59.05;38.38;;;;;;;12.30;53.04;103017.50;5275506;28;20509;-72
2022/03/25 09:17:21;;;;;;;56.20;37.38;;;;;;;12.36;51.21;103013.69;5274447;28;20024;-72
2022/03/25 09:19:54;;;;;;;60.13;40.50;;;;;;;12.44;52.07;103019.34;5272237;28;20489;-73
2022/03/25 09:22:26;;;;;;;60.72;41.17;;;;;;;12.54;52.19;103012.63;5273065;28;20032;-72
2022/03/25 09:24:58;;;;;;;59.08;41.10;;;;;;;12.74;51.98;103026.38;5274797;28;20032;-73
2022/03/25 09:27:29;;;;;;;53.72;40.03;;;;;;;12.77;51.13;103024.44;5271993;28;20040;-72
2022/03/25 09:30:01;;;;;;;54.17;36.95;;;;;;;12.86;50.24;103020.38;5275255;28;20458;-72
2022/03/25 09:32:32;;;;;;;56.33;39.28;;;;;;;12.89;49.49;103014.94;5275066;28;20036;-73
2022/03/25 09:35:10;;;;;;;54.17;36.03;;;;;;;13.04;47.82;103018.44;5274936;28;20028;-72
2022/03/25 09:37:50;;;;;;;56.00;36.47;;;;;;;13.33;48.75;103017.53;5274307;28;20060;-72
2022/03/25 09:40:25;;;;;;;47.45;34.70;;;;;;;13.35;47.41;103018.28;5274753;28;20056;-72
2022/03/25 09:42:57;;;;;;;56.50;35.38;;;;;;;13.62;47.50;103013.06;5273605;28;20030;-72
2022/03/25 09:45:30;;;;;;;53.85;36.15;;;;;;;13.68;47.42;103014.50;5273242;28;20346;-72
2022/03/25 09:48:03;;;;;;;49.75;36.53;;;;;;;13.74;46.31;103011.44;5275074;28;20247;-72
2022/03/25 09:50:37;;;;;;;48.22;33.05;;;;;;;13.76;45.08;103012.22;5274582;28;20086;-73
2022/03/25 09:53:08;;;;;;;44.30;32.40;;;;;;;13.94;44.82;103007.56;5275058;28;20505;-73
2022/03/25 09:55:42;;;;;;;44.80;31.75;;;;;;;14.05;44.19;103005.06;5274249;28;20035;-72
2022/03/25 09:58:22;;;;;;;44.83;30.48;;;;;;;14.14;43.86;103003.63;5274893;28;20070;-72
2022/03/25 10:00:54;;;;;;;43.78;30.02;;;;;;;14.13;43.32;102996.66;5274691;28;20023;-73
2022/03/25 10:03:32;;;;;;;44.80;30.65;;;;;;;14.34;43.25;103010.19;5271467;28;20028;-73
2022/03/25 10:06:10;;;;;;;48.45;31.23;;;;;;;14.47;42.72;103002.31;5272674;28;20043;-73
2022/03/25 10:08:43;;;;;;;42.08;30.38;;;;;;;14.49;43.44;103003.94;5274556;28;20021;-72
2022/03/25 10:11:30;;;;;;;40.70;28.73;;;;;;;14.78;41.62;103001.97;5274262;28;20032;-72
2022/03/25 10:14:18;;;;;;;41.15;29.27;;;;;;;14.92;42.80;102993.09;5273096;28;20059;-72
2022/03/25 10:16:52;;;;;;;45.83;29.80;;;;;;;15.01;41.62;102999.56;5274447;28;20032;-73
2022/03/25 10:19:25;;;;;;;43.50;30.88;;;;;;;15.07;40.29;103002.59;5272996;28;20040;-73
2022/03/25 10:21:58;;;;;;;;;;;;;;;15.65;41.43;102999.44;5273640;28;20028;-73
2022/03/25 10:24:40;;;;;;;39.42;27.42;;;;;;;15.42;40.50;102990.50;5273389;28;19947;-73
2022/03/25 10:27:14;;;;;;;38.47;26.33;;;;;;;15.39;38.77;102990.72;5274435;28;20032;-73
2022/03/25 10:29:47;;;;;;;39.13;26.33;;;;;;;15.40;38.67;102987.13;5273624;28;20031;-73
2022/03/25 10:32:20;;;;;;;39.20;27.15;;;;;;;15.46;38.35;102992.00;5273369;28;20362;-73
2022/03/25 10:35:06;;;;;;;34.70;25.42;;;;;;;15.79;38.06;102996.66;5269559;28;20024;-73
2022/03/25 10:37:54;;;;;;;37.58;25.55;;;;;;;15.62;38.05;102992.56;5273553;28;20028;-73
2022/03/25 10:40:25;;;;;;;33.47;23.02;;;;;;;15.58;37.82;102985.81;5274214;28;20078;-73
2022/03/25 10:43:07;;;;;;;37.92;24.70;;;;;;;15.78;37.44;102993.16;5273711;28;20028;-73
2022/03/25 10:45:40;;;;;;;32.38;23.05;;;;;;;15.71;35.93;102996.38;5269500;28;20120;-73
2022/03/25 10:48:21;;;;;;;31.13;22.70;;;;;;;15.99;36.67;102990.78;5272113;28;20025;-73
2022/03/25 10:51:11;;;;;;;38.20;24.63;;;;;;;16.21;37.51;102987.38;5274125;28;20111;-73
2022/03/25 10:53:43;;;;;;;32.17;23.15;;;;;;;15.98;35.01;102985.56;5271163;28;20027;-73
2022/03/25 10:56:14;;;;;;;38.58;23.67;;;;;;;15.99;36.16;102985.47;5273038;28;20029;-72
2022/03/25 10:58:54;;;;;;;32.65;22.52;;;;;;;16.03;35.87;102986.09;5270936;28;20025;-73
2022/03/25 11:01:25;;;;;;;26.15;19.95;;;;;;;16.19;34.50;102988.44;5271868;28;20128;-73
2022/03/25 11:03:58;;;;;;;29.23;20.92;;;;;;;16.21;33.69;102987.38;5271085;28;20469;-73
2022/03/25 11:06:31;;;;;;;38.55;24.40;;;;;;;16.15;35.34;102986.97;5272116;28;20065;-73
2022/03/25 11:09:05;;;;;;;34.03;23.15;;;;;;;16.33;33.88;102982.09;5273289;28;20024;-73
2022/03/25 11:11:37;;;;;;;;;;;;;;;16.98;34.99;102984.19;5272181;28;20040;-73
2022/03/25 11:14:09;;;;;;;31.10;20.90;;;;;;;16.32;33.97;102985.72;5274448;28;19921;-73
2022/03/25 11:16:43;;;;;;;33.80;21.05;;;;;;;16.45;34.35;102978.53;5277394;28;20107;-73
2022/03/25 11:19:16;;;;;;;35.40;24.02;;;;;;;16.78;36.26;102968.06;5277135;28;20024;-72
2022/03/25 11:21:49;;;;;;;34.97;23.10;;;;;;;16.85;34.42;102981.63;5274993;28;20065;-73
2022/03/25 11:24:36;;;;;;;34.28;24.27;;;;;;;17.05;34.95;102971.28;5273273;28;20590;-72
2022/03/25 11:27:23;;;;;;;33.50;24.20;;;;;;;17.05;35.28;102976.59;5276180;28;20497;-73
2022/03/25 11:30:00;;;;;;;36.42;25.52;;;;;;;17.10;35.17;102969.16;5276559;28;20062;-72
2022/03/25 11:32:31;;;;;;;42.03;26.95;;;;;;;17.03;35.54;102961.66;5276971;28;20393;-72
2022/03/25 11:35:02;;;;;;;37.00;25.50;;;;;;;17.29;33.93;102961.41;5275048;28;20036;-72
2022/03/25 11:37:34;;;;;;;37.17;24.13;;;;;;;17.40;33.41;102960.56;5278137;28;20024;-72
2022/03/25 11:40:15;;;;;;;36.90;23.30;;;;;;;17.60;34.69;102951.00;5278206;28;20504;-72
2022/03/25 11:42:49;;;;;;;30.50;22.33;;;;;;;17.45;33.61;102951.25;5275528;28;20635;-72
2022/03/25 11:45:20;;;;;;;33.58;23.20;;;;;;;17.36;32.90;102952.00;5270061;28;20303;-72